METAR Data
IDs: Format: Raw Decoded Include TAF

Data at: 2155 UTC 08 Aug 2020

KSAD 082151Z AUTO 26014G17KT 10SM CLR 38/08 A2996 RMK AO2 LTG DSNT N SLP082 T03780078
KSAD 082051Z AUTO VRB05KT 10SM CLR 39/08 A2998 RMK AO2 SLP086 T03940078 56022
KSAD 081951Z AUTO 10SM CLR 38/08 A3000 RMK AO2 SLP094 T03830083
KSAD 081851Z AUTO VRB03KT 10SM CLR 37/10 A3003 RMK AO2 SLP103 T03670100
KSAD 081751Z AUTO 16004KT 10SM CLR 36/10 A3005 RMK AO2 SLP111 T03560100 10356 20233 58008
KSAD 081651Z AUTO 11004KT 10SM CLR 34/11 A3007 RMK AO2 SLP116 T03440106
KSAD 081551Z AUTO 10008KT 10SM CLR 33/11 A3007 RMK AO2 SLP120 T03330106
KSAD 081451Z AUTO 30004KT 10SM CLR 28/11 A3008 RMK AO2 SLP124 T02830106 53015
KSAD 081351Z AUTO 11007KT 10SM CLR 28/10 A3006 RMK AO2 SLP117 T02780100
KSAD 081251Z AUTO 09005KT 10SM CLR 26/09 A3004 RMK AO2 SLP111 T02560094
KSAD 081151Z AUTO 10006KT 10SM CLR 24/09 A3003 RMK AO2 SLP107 T02440094 10283 20233 51002
KSAD 081051Z AUTO 10006KT 10SM CLR 25/09 A3003 RMK AO2 SLP106 T02500089
KSAD 080951Z AUTO 16005KT 10SM CLR 25/09 A3003 RMK AO2 SLP105 T02500094
KSAD 080851Z AUTO 13006KT 10SM CLR 27/09 A3002 RMK AO2 SLP104 T02670094 58001
KSAD 080751Z AUTO 11006KT 10SM CLR 27/09 A3002 RMK AO2 SLP105 T02670089
KSAD 080651Z AUTO 08007KT 10SM CLR 27/09 A3003 RMK AO2 SLP102 T02720094 403720222
KSAD 080551Z AUTO 12006KT 10SM CLR 28/10 A3002 RMK AO2 SLP102 T02830100 10367 20283 51013
KSAD 080451Z AUTO 15007KT 10SM CLR 29/09 A3002 RMK AO2 SLP102 T02940089
KSAD 080351Z AUTO 10007KT 10SM CLR 30/08 A3001 RMK AO2 SLP099 T03000083
KSAD 080251Z AUTO 12006KT 10SM CLR 33/08 A2998 RMK AO2 SLP089 T03280083 53007
KSAD 080151Z AUTO 12007KT 10SM CLR 36/07 A2997 RMK AO2 SLP086 T03560072
KSAD 080051Z AUTO 16007KT 10SM CLR 36/07 A2996 RMK AO2 SLP084 T03560072
KSAD 072351Z AUTO 00000KT 10SM SCT120 36/08 A2996 RMK AO2 SLP085 60000 T03610078 10372 20311 56017
KSAD 072251Z AUTO 00000KT 10SM CLR 37/09 A2997 RMK AO2 SLP088 T03670089
KSAD 072151Z AUTO VRB03KT 10SM FEW120 37/09 A2999 RMK AO2 SLP095 T03670089
KSAD 072051Z AUTO 02008KT 10SM FEW110 35/10 A3001 RMK AO2 RAB05E34 SLP100 P0000 60000 T03500100 56004
KSAD 071951Z AUTO 25012G21KT 10SM FEW090 BKN110 34/07 A3002 RMK AO2 SLP102 T03440067
KSAD 071851Z AUTO 26009G17KT 10SM SCT120 37/06 A3001 RMK AO2 SLP098 T03670056
KSAD 071751Z AUTO 30008G15KT 10SM CLR 36/05 A3003 RMK AO2 SLP102 T03560050 10361 20222 50001
KSAD 071651Z AUTO VRB04KT 10SM CLR 34/06 A3003 RMK AO2 SLP105 T03390061
KSAD 071551Z AUTO 00000KT 10SM CLR 31/04 A3003 RMK AO2 SLP103 T03060044
KSAD 071451Z AUTO 00000KT 10SM CLR 30/04 A3002 RMK AO2 SLP101 T03000044 53020
KSAD 071351Z AUTO 00000KT 10SM CLR 24/04 A3000 RMK AO2 SLP097 T02440039
KSAD 071251Z AUTO 16003KT 10SM CLR 23/04 A2998 RMK AO2 SLP089 T02330039
KSAD 071151Z AUTO 00000KT 10SM CLR 23/04 A2996 RMK AO2 SLP082 T02330039 10306 20228 53008
KSAD 071051Z AUTO 18003KT 10SM CLR 23/03 A2995 RMK AO2 SLP079 T02330033